Andale, Kansas
Current Conditions -  °F | °C
As of 1:53 PM on Friday 31 Oct 2014 (Local Time) from KICT Reporting Station
Clear Clear  
Wind Chill: 43°   Ceiling: Unl
Heat Index: 48°   Visibility: 10mi
Dew Point: 18°   Wind: 10mph
Humidity: 30%   Direction: 30°NNE
Pressure: 30.47"   Gusts: 21mph
Location:  37.79°N, 97.63°W
Report Text: KICT 311853Z 03009G18KT 10SM CLR 09/M08 A3047 RMK AO2 SLP319 T00891078
Loading
Personal Weather Stations






























Interactive Weather Map
Tropical Storm Tracking
New forecast layout! Learn more

10-Day Weather Forecast

Advertisements
Track Severe Weather on mobile